Current | Forecast
Updated: 12:00 AM JST on February 26, 2018
Observed at Miho AB, Japan
Temperature 3°C
Windchill 1°C
Humidity 81%
Dew Point 0°C
Wind SSW at 7 km/h
Pressure 1021 hPa (Steady)
Conditions Partly Cloudy
Visibility 10.0 kilometers
UV 0 out of 16
Clouds (FEW) : 914 m
Yesterday's Maximum 10°C
Yesterday's Minimum 4°C approx.
Yesterday's Heating Degree Days 20 approx.
Sunrise6:42 AM JST
Sunset5:59 PM JST
Moon Rise1:49 PM JST
Moon Set3:26 AM JST
Moon PhaseMoon Phase
Waxing Gibbous
Raw METARMETAR RJOH 251500Z 20004KT 9999 FEW030 BKN/// 03/00 Q1021


Monday
. High: 68° F.
Tuesday
. High: 66° F.
Wednesday
. High: 64° F.
Thursday
. High: 65° F.
Friday
. High: 66° F.
Saturday
. High: 66° F.
Sunday
. High: 66° F.
Monday
. High: 66° F.

Units: English | Metric

Find the Weather for any City, State or Zipcode, or Country:

U.S. State List | Severe Weather | Tropical Storms | Ski Conditions
United States | Canada | Central America | South America | Asia | Europe | Australia | Africa | Islands

Weather Underground

© Copyright 2018
The Weather Company, LLC